sensor_id;sensor_type;location;lat;lon;timestamp;P1;durP1;ratioP1;P2;durP2;ratioP2
31306;SDS011;17935;51.120;13.132;2023-04-01T00:00:21;4.03;;;1.30;;
31306;SDS011;17935;51.120;13.132;2023-04-01T00:02:47;7.28;;;1.40;;
31306;SDS011;17935;51.120;13.132;2023-04-01T00:05:13;6.05;;;1.50;;
31306;SDS011;17935;51.120;13.132;2023-04-01T00:07:39;4.70;;;1.60;;
31306;SDS011;17935;51.120;13.132;2023-04-01T00:10:06;3.60;;;1.58;;
31306;SDS011;17935;51.120;13.132;2023-04-01T00:12:33;2.38;;;1.20;;
31306;SDS011;17935;51.120;13.132;2023-04-01T00:14:59;4.30;;;1.52;;
31306;SDS011;17935;51.120;13.132;2023-04-01T00:17:25;6.45;;;1.73;;
31306;SDS011;17935;51.120;13.132;2023-04-01T00:19:51;2.65;;;1.17;;
31306;SDS011;17935;51.120;13.132;2023-04-01T00:22:17;3.22;;;1.30;;
31306;SDS011;17935;51.120;13.132;2023-04-01T00:24:43;4.88;;;1.52;;
31306;SDS011;17935;51.120;13.132;2023-04-01T00:27:09;4.00;;;1.80;;
31306;SDS011;17935;51.120;13.132;2023-04-01T00:29:34;3.42;;;1.30;;
31306;SDS011;17935;51.120;13.132;2023-04-01T00:32:00;7.97;;;1.85;;
31306;SDS011;17935;51.120;13.132;2023-04-01T00:34:26;5.00;;;1.65;;
31306;SDS011;17935;51.120;13.132;2023-04-01T00:36:52;6.63;;;1.50;;
31306;SDS011;17935;51.120;13.132;2023-04-01T00:39:19;2.92;;;1.50;;
31306;SDS011;17935;51.120;13.132;2023-04-01T00:41:46;3.10;;;1.70;;
31306;SDS011;17935;51.120;13.132;2023-04-01T00:44:16;3.47;;;1.23;;
31306;SDS011;17935;51.120;13.132;2023-04-01T00:46:43;5.88;;;1.80;;
31306;SDS011;17935;51.120;13.132;2023-04-01T00:49:08;5.40;;;1.60;;
31306;SDS011;17935;51.120;13.132;2023-04-01T00:51:35;12.95;;;1.90;;
31306;SDS011;17935;51.120;13.132;2023-04-01T00:54:03;5.20;;;1.50;;
31306;SDS011;17935;51.120;13.132;2023-04-01T00:56:32;10.32;;;1.95;;
31306;SDS011;17935;51.120;13.132;2023-04-01T00:59:02;3.15;;;1.33;;
31306;SDS011;17935;51.120;13.132;2023-04-01T01:01:28;2.47;;;1.35;;
31306;SDS011;17935;51.120;13.132;2023-04-01T01:03:55;5.25;;;1.58;;
31306;SDS011;17935;51.120;13.132;2023-04-01T01:09:02;4.97;;;1.70;;
31306;SDS011;17935;51.120;13.132;2023-04-01T01:11:42;6.20;;;1.35;;
31306;SDS011;17935;51.120;13.132;2023-04-01T01:14:21;6.03;;;1.50;;
31306;SDS011;17935;51.120;13.132;2023-04-01T01:16:53;2.28;;;1.35;;
31306;SDS011;17935;51.120;13.132;2023-04-01T01:19:33;2.88;;;1.30;;
31306;SDS011;17935;51.120;13.132;2023-04-01T01:22:29;8.13;;;1.80;;
31306;SDS011;17935;51.120;13.132;2023-04-01T01:25:03;3.03;;;1.67;;
31306;SDS011;17935;51.120;13.132;2023-04-01T01:27:34;5.78;;;1.60;;
31306;SDS011;17935;51.120;13.132;2023-04-01T01:32:59;4.63;;;1.55;;
31306;SDS011;17935;51.120;13.132;2023-04-01T01:35:46;11.18;;;1.50;;
31306;SDS011;17935;51.120;13.132;2023-04-01T01:38:15;2.17;;;1.17;;
31306;SDS011;17935;51.120;13.132;2023-04-01T01:40:43;11.25;;;1.52;;
31306;SDS011;17935;51.120;13.132;2023-04-01T01:43:11;3.47;;;1.55;;
31306;SDS011;17935;51.120;13.132;2023-04-01T01:45:40;6.28;;;1.52;;
31306;SDS011;17935;51.120;13.132;2023-04-01T01:48:06;7.63;;;1.63;;
31306;SDS011;17935;51.120;13.132;2023-04-01T01:50:34;4.70;;;1.50;;
31306;SDS011;17935;51.120;13.132;2023-04-01T01:53:10;3.50;;;1.30;;
31306;SDS011;17935;51.120;13.132;2023-04-01T01:55:37;4.38;;;1.63;;
31306;SDS011;17935;51.120;13.132;2023-04-01T02:00:49;3.08;;;1.65;;
31306;SDS011;17935;51.120;13.132;2023-04-01T02:03:16;3.88;;;1.88;;
31306;SDS011;17935;51.120;13.132;2023-04-01T02:05:43;4.82;;;1.40;;
31306;SDS011;17935;51.120;13.132;2023-04-01T02:08:12;9.18;;;2.00;;
31306;SDS011;17935;51.120;13.132;2023-04-01T02:10:40;8.02;;;1.52;;
31306;SDS011;17935;51.120;13.132;2023-04-01T02:13:09;8.15;;;1.35;;
31306;SDS011;17935;51.120;13.132;2023-04-01T02:15:37;4.88;;;1.55;;
31306;SDS011;17935;51.120;13.132;2023-04-01T02:18:06;9.93;;;1.40;;
31306;SDS011;17935;51.120;13.132;2023-04-01T02:20:32;6.47;;;2.50;;
31306;SDS011;17935;51.120;13.132;2023-04-01T02:22:59;5.13;;;2.00;;
31306;SDS011;17935;51.120;13.132;2023-04-01T02:25:29;4.93;;;1.95;;
31306;SDS011;17935;51.120;13.132;2023-04-01T02:27:57;6.60;;;1.92;;
31306;SDS011;17935;51.120;13.132;2023-04-01T02:30:23;5.40;;;1.50;;
31306;SDS011;17935;51.120;13.132;2023-04-01T02:32:51;7.93;;;1.88;;
31306;SDS011;17935;51.120;13.132;2023-04-01T02:35:18;5.10;;;1.80;;
31306;SDS011;17935;51.120;13.132;2023-04-01T02:37:45;4.72;;;1.80;;
31306;SDS011;17935;51.120;13.132;2023-04-01T02:40:13;6.32;;;3.53;;
31306;SDS011;17935;51.120;13.132;2023-04-01T02:42:40;5.90;;;1.90;;
31306;SDS011;17935;51.120;13.132;2023-04-01T02:45:06;4.22;;;1.73;;
31306;SDS011;17935;51.120;13.132;2023-04-01T02:47:32;7.82;;;2.17;;
31306;SDS011;17935;51.120;13.132;2023-04-01T02:49:58;3.83;;;2.00;;
31306;SDS011;17935;51.120;13.132;2023-04-01T02:52:24;5.95;;;1.83;;
31306;SDS011;17935;51.120;13.132;2023-04-01T02:54:50;5.88;;;1.67;;
31306;SDS011;17935;51.120;13.132;2023-04-01T02:57:16;5.20;;;1.30;;
31306;SDS011;17935;51.120;13.132;2023-04-01T02:59:42;8.93;;;2.05;;
31306;SDS011;17935;51.120;13.132;2023-04-01T03:02:08;6.45;;;2.08;;
31306;SDS011;17935;51.120;13.132;2023-04-01T03:04:34;4.15;;;1.63;;
31306;SDS011;17935;51.120;13.132;2023-04-01T03:07:00;3.38;;;1.60;;
31306;SDS011;17935;51.120;13.132;2023-04-01T03:09:26;11.20;;;2.67;;
31306;SDS011;17935;51.120;13.132;2023-04-01T03:11:53;10.02;;;2.03;;
31306;SDS011;17935;51.120;13.132;2023-04-01T03:14:19;9.77;;;2.65;;
31306;SDS011;17935;51.120;13.132;2023-04-01T03:16:45;5.47;;;1.90;;
31306;SDS011;17935;51.120;13.132;2023-04-01T03:19:11;7.65;;;1.75;;
31306;SDS011;17935;51.120;13.132;2023-04-01T03:21:37;6.38;;;1.70;;
31306;SDS011;17935;51.120;13.132;2023-04-01T03:24:03;4.72;;;2.10;;
31306;SDS011;17935;51.120;13.132;2023-04-01T03:26:29;7.53;;;2.28;;
31306;SDS011;17935;51.120;13.132;2023-04-01T03:28:55;5.97;;;1.80;;
31306;SDS011;17935;51.120;13.132;2023-04-01T03:31:21;9.95;;;1.95;;
31306;SDS011;17935;51.120;13.132;2023-04-01T03:33:47;5.80;;;1.90;;
31306;SDS011;17935;51.120;13.132;2023-04-01T03:36:13;6.68;;;2.15;;
31306;SDS011;17935;51.120;13.132;2023-04-01T03:38:40;7.13;;;1.88;;
31306;SDS011;17935;51.120;13.132;2023-04-01T03:41:06;2.63;;;1.55;;
31306;SDS011;17935;51.120;13.132;2023-04-01T03:43:32;4.85;;;1.73;;
31306;SDS011;17935;51.120;13.132;2023-04-01T03:45:58;4.70;;;1.88;;
31306;SDS011;17935;51.120;13.132;2023-04-01T03:48:24;7.05;;;1.80;;
31306;SDS011;17935;51.120;13.132;2023-04-01T03:50:50;4.75;;;1.45;;
31306;SDS011;17935;51.120;13.132;2023-04-01T03:53:16;4.70;;;1.40;;
31306;SDS011;17935;51.120;13.132;2023-04-01T03:55:42;6.32;;;1.88;;
31306;SDS011;17935;51.120;13.132;2023-04-01T03:58:08;4.90;;;1.48;;
31306;SDS011;17935;51.120;13.132;2023-04-01T04:00:34;4.25;;;1.35;;
31306;SDS011;17935;51.120;13.132;2023-04-01T04:03:00;6.90;;;3.40;;
31306;SDS011;17935;51.120;13.132;2023-04-01T04:05:26;4.85;;;1.40;;
31306;SDS011;17935;51.120;13.132;2023-04-01T04:07:53;5.20;;;1.50;;
31306;SDS011;17935;51.120;13.132;2023-04-01T04:10:19;9.57;;;1.17;;
31306;SDS011;17935;51.120;13.132;2023-04-01T04:12:45;6.47;;;1.73;;
31306;SDS011;17935;51.120;13.132;2023-04-01T04:15:11;6.40;;;1.65;;
31306;SDS011;17935;51.120;13.132;2023-04-01T04:17:37;6.57;;;1.65;;
31306;SDS011;17935;51.120;13.132;2023-04-01T04:20:03;6.95;;;1.55;;
31306;SDS011;17935;51.120;13.132;2023-04-01T04:22:29;4.28;;;1.40;;
31306;SDS011;17935;51.120;13.132;2023-04-01T04:24:55;2.90;;;0.98;;
31306;SDS011;17935;51.120;13.132;2023-04-01T04:27:21;3.90;;;1.30;;
31306;SDS011;17935;51.120;13.132;2023-04-01T04:29:47;5.68;;;1.20;;
31306;SDS011;17935;51.120;13.132;2023-04-01T04:32:13;7.18;;;1.67;;
31306;SDS011;17935;51.120;13.132;2023-04-01T04:34:39;7.97;;;1.65;;
31306;SDS011;17935;51.120;13.132;2023-04-01T04:37:05;2.42;;;1.40;;
31306;SDS011;17935;51.120;13.132;2023-04-01T04:39:31;6.53;;;1.83;;
31306;SDS011;17935;51.120;13.132;2023-04-01T04:41:57;12.13;;;1.85;;
31306;SDS011;17935;51.120;13.132;2023-04-01T04:44:23;4.35;;;1.40;;
31306;SDS011;17935;51.120;13.132;2023-04-01T04:46:49;4.68;;;1.63;;
31306;SDS011;17935;51.120;13.132;2023-04-01T04:49:15;7.38;;;3.70;;
31306;SDS011;17935;51.120;13.132;2023-04-01T04:51:41;3.08;;;1.40;;
31306;SDS011;17935;51.120;13.132;2023-04-01T04:54:08;4.75;;;1.80;;
31306;SDS011;17935;51.120;13.132;2023-04-01T04:56:34;4.55;;;1.55;;
31306;SDS011;17935;51.120;13.132;2023-04-01T04:59:00;5.65;;;1.40;;
31306;SDS011;17935;51.120;13.132;2023-04-01T05:01:27;4.32;;;1.63;;
31306;SDS011;17935;51.120;13.132;2023-04-01T05:03:53;5.10;;;1.75;;
31306;SDS011;17935;51.120;13.132;2023-04-01T05:06:19;7.07;;;1.70;;
31306;SDS011;17935;51.120;13.132;2023-04-01T05:08:45;5.07;;;1.63;;
31306;SDS011;17935;51.120;13.132;2023-04-01T05:11:13;4.53;;;1.52;;
31306;SDS011;17935;51.120;13.132;2023-04-01T05:13:39;10.43;;;1.60;;
31306;SDS011;17935;51.120;13.132;2023-04-01T05:16:15;4.30;;;1.83;;
31306;SDS011;17935;51.120;13.132;2023-04-01T05:18:42;5.63;;;1.85;;
31306;SDS011;17935;51.120;13.132;2023-04-01T05:21:09;5.40;;;1.38;;
31306;SDS011;17935;51.120;13.132;2023-04-01T05:23:35;3.33;;;1.85;;
31306;SDS011;17935;51.120;13.132;2023-04-01T05:26:05;7.70;;;1.90;;
31306;SDS011;17935;51.120;13.132;2023-04-01T05:28:31;7.47;;;1.85;;
31306;SDS011;17935;51.120;13.132;2023-04-01T05:31:00;2.97;;;1.63;;
31306;SDS011;17935;51.120;13.132;2023-04-01T05:33:26;4.05;;;1.55;;
31306;SDS011;17935;51.120;13.132;2023-04-01T05:35:53;9.07;;;1.88;;
31306;SDS011;17935;51.120;13.132;2023-04-01T05:38:19;5.35;;;1.73;;
31306;SDS011;17935;51.120;13.132;2023-04-01T05:40:45;6.13;;;1.55;;
31306;SDS011;17935;51.120;13.132;2023-04-01T05:43:11;5.35;;;1.63;;
31306;SDS011;17935;51.120;13.132;2023-04-01T05:45:37;11.05;;;1.90;;
31306;SDS011;17935;51.120;13.132;2023-04-01T05:48:03;4.18;;;1.60;;
31306;SDS011;17935;51.120;13.132;2023-04-01T05:50:28;3.50;;;1.33;;
31306;SDS011;17935;51.120;13.132;2023-04-01T05:52:54;5.80;;;1.60;;
31306;SDS011;17935;51.120;13.132;2023-04-01T05:55:20;5.10;;;1.50;;
31306;SDS011;17935;51.120;13.132;2023-04-01T05:57:46;4.88;;;1.80;;
31306;SDS011;17935;51.120;13.132;2023-04-01T06:00:14;3.10;;;1.40;;
31306;SDS011;17935;51.120;13.132;2023-04-01T06:02:40;4.95;;;1.40;;
31306;SDS011;17935;51.120;13.132;2023-04-01T06:05:12;8.77;;;1.75;;
31306;SDS011;17935;51.120;13.132;2023-04-01T06:07:39;5.95;;;1.33;;
31306;SDS011;17935;51.120;13.132;2023-04-01T06:10:16;2.00;;;1.33;;
31306;SDS011;17935;51.120;13.132;2023-04-01T06:25:40;6.28;;;1.50;;
31306;SDS011;17935;51.120;13.132;2023-04-01T06:36:21;4.40;;;1.27;;
31306;SDS011;17935;51.120;13.132;2023-04-01T06:44:16;3.00;;;1.45;;
31306;SDS011;17935;51.120;13.132;2023-04-01T06:46:47;8.15;;;1.55;;
31306;SDS011;17935;51.120;13.132;2023-04-01T06:49:21;1.77;;;1.08;;
31306;SDS011;17935;51.120;13.132;2023-04-01T06:52:13;5.38;;;1.25;;
31306;SDS011;17935;51.120;13.132;2023-04-01T06:54:42;3.80;;;1.67;;
31306;SDS011;17935;51.120;13.132;2023-04-01T06:57:16;5.35;;;1.17;;
31306;SDS011;17935;51.120;13.132;2023-04-01T06:59:45;3.65;;;1.27;;
31306;SDS011;17935;51.120;13.132;2023-04-01T07:02:16;3.40;;;1.40;;
31306;SDS011;17935;51.120;13.132;2023-04-01T07:04:44;1.75;;;1.23;;
31306;SDS011;17935;51.120;13.132;2023-04-01T07:07:17;6.75;;;1.30;;
31306;SDS011;17935;51.120;13.132;2023-04-01T07:12:15;6.18;;;1.70;;
31306;SDS011;17935;51.120;13.132;2023-04-01T07:14:42;4.93;;;1.60;;
31306;SDS011;17935;51.120;13.132;2023-04-01T07:17:16;5.18;;;1.25;;
31306;SDS011;17935;51.120;13.132;2023-04-01T07:22:27;3.08;;;1.20;;
31306;SDS011;17935;51.120;13.132;2023-04-01T07:24:55;8.68;;;1.60;;
31306;SDS011;17935;51.120;13.132;2023-04-01T07:27:22;3.60;;;1.10;;
31306;SDS011;17935;51.120;13.132;2023-04-01T07:29:48;3.60;;;1.10;;
31306;SDS011;17935;51.120;13.132;2023-04-01T07:32:17;5.40;;;1.27;;
31306;SDS011;17935;51.120;13.132;2023-04-01T07:40:09;3.30;;;1.20;;
31306;SDS011;17935;51.120;13.132;2023-04-01T07:42:50;1.55;;;1.10;;
31306;SDS011;17935;51.120;13.132;2023-04-01T07:45:26;4.05;;;1.15;;
31306;SDS011;17935;51.120;13.132;2023-04-01T07:55:42;2.78;;;1.20;;
31306;SDS011;17935;51.120;13.132;2023-04-01T08:00:42;2.55;;;1.13;;
31306;SDS011;17935;51.120;13.132;2023-04-01T08:05:46;2.25;;;1.17;;
31306;SDS011;17935;51.120;13.132;2023-04-01T08:16:26;2.78;;;1.38;;
31306;SDS011;17935;51.120;13.132;2023-04-01T08:21:28;4.38;;;1.00;;
31306;SDS011;17935;51.120;13.132;2023-04-01T08:23:58;3.05;;;1.25;;
31306;SDS011;17935;51.120;13.132;2023-04-01T08:26:36;1.35;;;0.98;;
31306;SDS011;17935;51.120;13.132;2023-04-01T08:29:12;7.60;;;2.25;;
31306;SDS011;17935;51.120;13.132;2023-04-01T08:31:44;9.90;;;2.40;;
31306;SDS011;17935;51.120;13.132;2023-04-01T08:34:15;48.67;;;23.70;;
31306;SDS011;17935;51.120;13.132;2023-04-01T08:36:43;29.55;;;13.77;;
31306;SDS011;17935;51.120;13.132;2023-04-01T08:39:15;5.50;;;3.03;;
31306;SDS011;17935;51.120;13.132;2023-04-01T08:41:53;5.07;;;2.15;;
31306;SDS011;17935;51.120;13.132;2023-04-01T08:52:11;2.20;;;1.45;;
31306;SDS011;17935;51.120;13.132;2023-04-01T08:57:33;5.43;;;2.70;;
31306;SDS011;17935;51.120;13.132;2023-04-01T09:00:05;6.45;;;1.98;;
31306;SDS011;17935;51.120;13.132;2023-04-01T09:02:49;3.83;;;1.35;;
31306;SDS011;17935;51.120;13.132;2023-04-01T09:08:07;3.72;;;1.10;;
31306;SDS011;17935;51.120;13.132;2023-04-01T09:13:05;3.67;;;1.27;;
31306;SDS011;17935;51.120;13.132;2023-04-01T09:20:51;7.35;;;2.90;;
31306;SDS011;17935;51.120;13.132;2023-04-01T09:23:36;7.80;;;1.83;;
31306;SDS011;17935;51.120;13.132;2023-04-01T09:28:38;2.90;;;1.25;;
31306;SDS011;17935;51.120;13.132;2023-04-01T09:33:43;1.35;;;1.10;;
31306;SDS011;17935;51.120;13.132;2023-04-01T09:38:58;2.67;;;1.50;;
31306;SDS011;17935;51.120;13.132;2023-04-01T09:41:28;3.87;;;1.13;;
31306;SDS011;17935;51.120;13.132;2023-04-01T09:46:45;7.03;;;2.40;;
31306;SDS011;17935;51.120;13.132;2023-04-01T09:49:26;2.35;;;1.05;;
31306;SDS011;17935;51.120;13.132;2023-04-01T09:52:00;2.97;;;1.30;;
31306;SDS011;17935;51.120;13.132;2023-04-01T09:54:50;4.05;;;2.17;;
31306;SDS011;17935;51.120;13.132;2023-04-01T10:02:57;2.38;;;1.02;;
31306;SDS011;17935;51.120;13.132;2023-04-01T10:05:33;1.27;;;1.15;;
31306;SDS011;17935;51.120;13.132;2023-04-01T10:10:57;4.30;;;1.52;;
31306;SDS011;17935;51.120;13.132;2023-04-01T10:21:57;2.45;;;1.13;;
31306;SDS011;17935;51.120;13.132;2023-04-01T10:27:16;2.17;;;1.00;;
31306;SDS011;17935;51.120;13.132;2023-04-01T10:43:53;3.70;;;1.05;;
31306;SDS011;17935;51.120;13.132;2023-04-01T11:13:50;0.70;;;0.63;;
31306;SDS011;17935;51.120;13.132;2023-04-01T11:19:06;3.40;;;1.73;;
31306;SDS011;17935;51.120;13.132;2023-04-01T11:24:13;2.35;;;0.73;;
31306;SDS011;17935;51.120;13.132;2023-04-01T11:26:56;0.77;;;0.73;;
31306;SDS011;17935;51.120;13.132;2023-04-01T11:29:30;0.98;;;0.73;;
31306;SDS011;17935;51.120;13.132;2023-04-01T11:34:42;1.52;;;1.08;;
31306;SDS011;17935;51.120;13.132;2023-04-01T11:37:29;2.85;;;1.08;;
31306;SDS011;17935;51.120;13.132;2023-04-01T11:40:11;1.95;;;1.55;;
31306;SDS011;17935;51.120;13.132;2023-04-01T11:42:49;1.45;;;1.00;;
31306;SDS011;17935;51.120;13.132;2023-04-01T12:01:08;2.92;;;1.17;;
31306;SDS011;17935;51.120;13.132;2023-04-01T12:03:38;1.13;;;1.00;;
31306;SDS011;17935;51.120;13.132;2023-04-01T12:08:39;2.13;;;1.08;;
31306;SDS011;17935;51.120;13.132;2023-04-01T12:16:16;0.77;;;0.77;;
31306;SDS011;17935;51.120;13.132;2023-04-01T12:21:17;1.60;;;0.50;;
31306;SDS011;17935;51.120;13.132;2023-04-01T12:29:25;4.78;;;0.70;;
31306;SDS011;17935;51.120;13.132;2023-04-01T12:32:19;0.93;;;0.60;;
31306;SDS011;17935;51.120;13.132;2023-04-01T12:37:21;2.58;;;0.90;;
31306;SDS011;17935;51.120;13.132;2023-04-01T12:42:37;0.98;;;0.70;;
31306;SDS011;17935;51.120;13.132;2023-04-01T12:50:26;0.73;;;0.68;;
31306;SDS011;17935;51.120;13.132;2023-04-01T13:03:31;0.43;;;0.43;;
31306;SDS011;17935;51.120;13.132;2023-04-01T13:08:42;0.60;;;0.60;;
31306;SDS011;17935;51.120;13.132;2023-04-01T13:11:14;1.02;;;0.80;;
31306;SDS011;17935;51.120;13.132;2023-04-01T13:13:56;2.85;;;1.10;;
31306;SDS011;17935;51.120;13.132;2023-04-01T13:16:27;0.85;;;0.70;;
31306;SDS011;17935;51.120;13.132;2023-04-01T13:19:03;1.40;;;0.55;;
31306;SDS011;17935;51.120;13.132;2023-04-01T13:21:43;1.42;;;0.77;;
31306;SDS011;17935;51.120;13.132;2023-04-01T13:24:18;2.17;;;0.40;;
31306;SDS011;17935;51.120;13.132;2023-04-01T13:29:18;0.82;;;0.50;;
31306;SDS011;17935;51.120;13.132;2023-04-01T13:35:04;2.35;;;0.70;;
31306;SDS011;17935;51.120;13.132;2023-04-01T13:40:02;0.85;;;0.63;;
31306;SDS011;17935;51.120;13.132;2023-04-01T13:42:33;3.50;;;1.35;;
31306;SDS011;17935;51.120;13.132;2023-04-01T13:45:09;1.35;;;1.23;;
31306;SDS011;17935;51.120;13.132;2023-04-01T14:26:49;3.60;;;1.00;;
31306;SDS011;17935;51.120;13.132;2023-04-01T14:34:29;3.70;;;1.00;;
31306;SDS011;17935;51.120;13.132;2023-04-01T14:42:21;0.90;;;0.85;;
31306;SDS011;17935;51.120;13.132;2023-04-01T14:47:39;1.33;;;0.82;;
31306;SDS011;17935;51.120;13.132;2023-04-01T14:50:09;0.63;;;0.63;;
31306;SDS011;17935;51.120;13.132;2023-04-01T14:52:39;0.82;;;0.82;;
31306;SDS011;17935;51.120;13.132;2023-04-01T14:58:07;0.80;;;0.80;;
31306;SDS011;17935;51.120;13.132;2023-04-01T15:03:13;0.70;;;0.70;;
31306;SDS011;17935;51.120;13.132;2023-04-01T15:08:18;0.55;;;0.55;;
31306;SDS011;17935;51.120;13.132;2023-04-01T15:13:30;1.95;;;0.80;;
31306;SDS011;17935;51.120;13.132;2023-04-01T15:37:08;1.02;;;0.77;;
31306;SDS011;17935;51.120;13.132;2023-04-01T15:44:46;0.70;;;0.70;;
31306;SDS011;17935;51.120;13.132;2023-04-01T15:47:30;1.23;;;0.70;;
31306;SDS011;17935;51.120;13.132;2023-04-01T15:50:02;1.10;;;1.00;;
31306;SDS011;17935;51.120;13.132;2023-04-01T15:55:20;1.27;;;0.98;;
31306;SDS011;17935;51.120;13.132;2023-04-01T16:05:43;1.83;;;1.42;;
31306;SDS011;17935;51.120;13.132;2023-04-01T16:13:35;2.40;;;2.05;;
31306;SDS011;17935;51.120;13.132;2023-04-01T16:16:13;3.42;;;2.20;;
31306;SDS011;17935;51.120;13.132;2023-04-01T16:23:53;3.78;;;3.08;;
31306;SDS011;17935;51.120;13.132;2023-04-01T16:26:23;4.30;;;2.95;;
31306;SDS011;17935;51.120;13.132;2023-04-01T16:34:10;23.08;;;13.95;;
31306;SDS011;17935;51.120;13.132;2023-04-01T16:39:34;7.35;;;5.65;;
31306;SDS011;17935;51.120;13.132;2023-04-01T16:47:21;7.68;;;4.85;;
31306;SDS011;17935;51.120;13.132;2023-04-01T16:49:54;10.73;;;4.70;;
31306;SDS011;17935;51.120;13.132;2023-04-01T16:52:48;5.07;;;3.70;;
31306;SDS011;17935;51.120;13.132;2023-04-01T16:55:15;2.83;;;2.00;;
31306;SDS011;17935;51.120;13.132;2023-04-01T16:57:52;4.07;;;1.85;;
31306;SDS011;17935;51.120;13.132;2023-04-01T17:00:28;1.83;;;1.55;;
31306;SDS011;17935;51.120;13.132;2023-04-01T17:05:20;3.05;;;1.80;;
31306;SDS011;17935;51.120;13.132;2023-04-01T17:08:03;6.55;;;2.60;;
31306;SDS011;17935;51.120;13.132;2023-04-01T17:13:06;3.30;;;2.30;;
31306;SDS011;17935;51.120;13.132;2023-04-01T17:15:47;3.35;;;2.40;;
31306;SDS011;17935;51.120;13.132;2023-04-01T17:21:04;5.07;;;2.67;;
31306;SDS011;17935;51.120;13.132;2023-04-01T17:23:34;3.78;;;2.67;;
31306;SDS011;17935;51.120;13.132;2023-04-01T17:26:06;3.03;;;2.10;;
31306;SDS011;17935;51.120;13.132;2023-04-01T17:29:21;6.63;;;4.85;;
31306;SDS011;17935;51.120;13.132;2023-04-01T17:37:06;5.35;;;3.35;;
31306;SDS011;17935;51.120;13.132;2023-04-01T17:45:18;4.70;;;3.35;;
31306;SDS011;17935;51.120;13.132;2023-04-01T17:48:01;4.88;;;3.60;;
31306;SDS011;17935;51.120;13.132;2023-04-01T17:50:53;5.38;;;3.83;;
31306;SDS011;17935;51.120;13.132;2023-04-01T17:56:06;6.40;;;4.10;;
31306;SDS011;17935;51.120;13.132;2023-04-01T17:58:45;6.03;;;3.60;;
31306;SDS011;17935;51.120;13.132;2023-04-01T18:06:31;4.72;;;3.00;;
31306;SDS011;17935;51.120;13.132;2023-04-01T18:16:47;20.05;;;10.70;;
31306;SDS011;17935;51.120;13.132;2023-04-01T18:19:21;8.85;;;2.80;;
31306;SDS011;17935;51.120;13.132;2023-04-01T18:21:50;2.28;;;2.08;;
31306;SDS011;17935;51.120;13.132;2023-04-01T18:24:28;3.50;;;2.45;;
31306;SDS011;17935;51.120;13.132;2023-04-01T18:27:04;5.65;;;2.85;;
31306;SDS011;17935;51.120;13.132;2023-04-01T18:29:52;4.35;;;2.50;;
31306;SDS011;17935;51.120;13.132;2023-04-01T18:32:42;7.93;;;5.30;;
31306;SDS011;17935;51.120;13.132;2023-04-01T18:37:59;8.80;;;5.43;;
31306;SDS011;17935;51.120;13.132;2023-04-01T18:40:36;8.30;;;5.13;;
31306;SDS011;17935;51.120;13.132;2023-04-01T18:45:34;9.95;;;5.57;;
31306;SDS011;17935;51.120;13.132;2023-04-01T18:48:05;7.22;;;5.00;;
31306;SDS011;17935;51.120;13.132;2023-04-01T18:53:09;6.68;;;4.85;;
31306;SDS011;17935;51.120;13.132;2023-04-01T18:55:49;10.18;;;5.97;;
31306;SDS011;17935;51.120;13.132;2023-04-01T19:05:59;8.05;;;5.45;;
31306;SDS011;17935;51.120;13.132;2023-04-01T19:08:31;5.63;;;4.70;;
31306;SDS011;17935;51.120;13.132;2023-04-01T19:11:14;8.57;;;5.32;;
31306;SDS011;17935;51.120;13.132;2023-04-01T19:19:07;4.85;;;3.60;;
31306;SDS011;17935;51.120;13.132;2023-04-01T19:21:44;5.93;;;3.85;;
31306;SDS011;17935;51.120;13.132;2023-04-01T19:29:18;4.63;;;2.20;;
31306;SDS011;17935;51.120;13.132;2023-04-01T19:34:54;5.63;;;4.20;;
31306;SDS011;17935;51.120;13.132;2023-04-01T19:37:36;6.57;;;4.72;;
31306;SDS011;17935;51.120;13.132;2023-04-01T19:50:29;9.95;;;6.95;;
31306;SDS011;17935;51.120;13.132;2023-04-01T19:53:04;11.35;;;7.93;;
31306;SDS011;17935;51.120;13.132;2023-04-01T19:55:44;9.25;;;7.55;;
31306;SDS011;17935;51.120;13.132;2023-04-01T19:58:22;12.07;;;8.40;;
31306;SDS011;17935;51.120;13.132;2023-04-01T20:00:51;10.98;;;8.00;;
31306;SDS011;17935;51.120;13.132;2023-04-01T20:06:21;11.52;;;8.68;;
31306;SDS011;17935;51.120;13.132;2023-04-01T20:08:51;12.77;;;9.00;;
31306;SDS011;17935;51.120;13.132;2023-04-01T20:16:21;10.20;;;8.05;;
31306;SDS011;17935;51.120;13.132;2023-04-01T20:18:59;10.95;;;8.70;;
31306;SDS011;17935;51.120;13.132;2023-04-01T20:21:44;10.98;;;9.23;;
31306;SDS011;17935;51.120;13.132;2023-04-01T20:26:50;17.92;;;13.98;;
31306;SDS011;17935;51.120;13.132;2023-04-01T20:31:59;10.98;;;7.03;;
31306;SDS011;17935;51.120;13.132;2023-04-01T20:34:46;11.43;;;6.85;;
31306;SDS011;17935;51.120;13.132;2023-04-01T20:37:28;17.92;;;5.15;;
31306;SDS011;17935;51.120;13.132;2023-04-01T20:42:29;13.95;;;6.88;;
31306;SDS011;17935;51.120;13.132;2023-04-01T20:45:04;12.07;;;6.90;;
31306;SDS011;17935;51.120;13.132;2023-04-01T20:53:16;17.55;;;8.40;;
31306;SDS011;17935;51.120;13.132;2023-04-01T20:56:44;14.23;;;9.15;;
31306;SDS011;17935;51.120;13.132;2023-04-01T21:06:52;17.80;;;10.07;;
31306;SDS011;17935;51.120;13.132;2023-04-01T21:09:31;26.70;;;12.35;;
31306;SDS011;17935;51.120;13.132;2023-04-01T21:15:01;28.05;;;12.23;;
31306;SDS011;17935;51.120;13.132;2023-04-01T21:22:49;44.47;;;14.77;;
31306;SDS011;17935;51.120;13.132;2023-04-01T21:35:48;44.97;;;16.92;;
31306;SDS011;17935;51.120;13.132;2023-04-01T21:38:28;38.10;;;15.57;;
31306;SDS011;17935;51.120;13.132;2023-04-01T21:43:50;57.15;;;18.52;;
31306;SDS011;17935;51.120;13.132;2023-04-01T21:59:20;81.00;;;25.15;;
31306;SDS011;17935;51.120;13.132;2023-04-01T22:09:48;75.65;;;24.83;;
31306;SDS011;17935;51.120;13.132;2023-04-01T22:12:23;77.13;;;25.80;;
31306;SDS011;17935;51.120;13.132;2023-04-01T22:17:32;64.03;;;23.30;;
31306;SDS011;17935;51.120;13.132;2023-04-01T22:20:06;57.28;;;23.30;;
31306;SDS011;17935;51.120;13.132;2023-04-01T22:22:58;70.95;;;24.02;;
31306;SDS011;17935;51.120;13.132;2023-04-01T22:25:37;78.60;;;25.60;;
31306;SDS011;17935;51.120;13.132;2023-04-01T22:28:22;72.82;;;23.67;;
31306;SDS011;17935;51.120;13.132;2023-04-01T22:30:53;72.95;;;23.05;;
31306;SDS011;17935;51.120;13.132;2023-04-01T22:33:32;55.28;;;20.23;;
31306;SDS011;17935;51.120;13.132;2023-04-01T22:38:41;50.42;;;18.52;;
31306;SDS011;17935;51.120;13.132;2023-04-01T22:41:38;51.78;;;17.20;;
31306;SDS011;17935;51.120;13.132;2023-04-01T22:44:06;41.13;;;15.90;;
31306;SDS011;17935;51.120;13.132;2023-04-01T22:51:49;32.03;;;14.23;;
31306;SDS011;17935;51.120;13.132;2023-04-01T22:54:29;36.15;;;15.68;;
31306;SDS011;17935;51.120;13.132;2023-04-01T22:57:00;36.72;;;15.85;;
31306;SDS011;17935;51.120;13.132;2023-04-01T23:01:59;32.25;;;15.20;;
31306;SDS011;17935;51.120;13.132;2023-04-01T23:04:29;29.77;;;14.38;;
31306;SDS011;17935;51.120;13.132;2023-04-01T23:06:57;31.52;;;15.30;;
31306;SDS011;17935;51.120;13.132;2023-04-01T23:09:26;41.35;;;16.52;;
31306;SDS011;17935;51.120;13.132;2023-04-01T23:12:01;34.17;;;15.65;;
31306;SDS011;17935;51.120;13.132;2023-04-01T23:14:33;33.92;;;14.30;;
31306;SDS011;17935;51.120;13.132;2023-04-01T23:17:06;32.70;;;15.32;;
31306;SDS011;17935;51.120;13.132;2023-04-01T23:22:39;34.95;;;15.27;;
31306;SDS011;17935;51.120;13.132;2023-04-01T23:25:23;31.92;;;14.98;;
31306;SDS011;17935;51.120;13.132;2023-04-01T23:27:51;44.10;;;17.42;;
31306;SDS011;17935;51.120;13.132;2023-04-01T23:30:46;38.08;;;16.80;;
31306;SDS011;17935;51.120;13.132;2023-04-01T23:33:19;32.13;;;15.85;;